Buffalo Niagara International Airport
KBUF : now visible

Airfield :











YOU CAN JOIN US ON...

 
LOGIN :

Register | Disclaimer

   EN    FR    IT 

 









Legend :    VFR   Marginal VFR   IFR   Intensive IFR   Very Intensive IFR
Visi :
Ceiling :
>= 8 km
>= 3000ft
5 to 8 km
1000 to 3000 ft
1500m to 5 km
500 to 1000 ft
800 to 1500m
200 to 500 ft
< 800m
< 200 ft
Symbols :   Thunderstorms  Fog  Heavy snow  Heavy precipitations  Wind > 20 kt






- Airport Elevation : 728 ft
- IATA code : BUF


KBUF - Buffalo Niagara International

CURRENT METAR :
  • 240454Z 23009KT 10SM -RA FEW009 SCT055 OVC080 09/08 A2981 RMK AO2 RAE42B48 SLP097 P0001 T00940078 401890072 $

EXPIRED METARs :
  • 240444Z 21008KT 10SM SCT009 BKN055 OVC095 09/08 A2981 RMK AO2 RAE42 P0001 T00940078 $
  • 240409Z 22011KT 10SM -RA BKN009 OVC060 09/08 A2982 RMK AO2 P0000 T00940078 $
  • 240336Z 22012G24KT 10SM -RA FEW008 SCT011 OVC055 09/08 A2982 RMK AO2 P0005 T00940078 $
  • 240310Z 23017G23KT 9SM RA BKN008 BKN048 OVC060 09/08 A2984 RMK AO2 P0001 T00940078 $
  • 240302Z 24015G23KT 10SM -RA SCT008 BKN050 OVC065 09/08 A2984 RMK AO2 P0000 T00940078 $
  • 240254Z 23014G21KT 10SM -RA BKN008 OVC055 09/08 A2984 RMK AO2 PK WND 22026/0222 RAB0156E03B16 SLP105 P0000 60003 T00940078 55003 $
  • 240230Z 23013G26KT 10SM -RA BKN009 OVC050 10/08 A2984 RMK AO2 PK WND 22026/0222 RAB0156E03B16 P0000 T01000078 $
  • 240154Z 21012KT 10SM FEW018 SCT022 OVC055 10/08 A2984 RMK AO2 RAE19 SLP105 P0001 T01000078 $
  • 240139Z 20010KT 10SM BKN021 BKN027 OVC070 10/08 A2984 RMK AO2 RAE19 P0001 T01000078 $
  • 240107Z COR 22007KT 10SM -RA FEW006 SCT023 OVC060 09/08 A2985 RMK AO2 P0001 T00890078
  • 240054Z 22009KT 8SM -RA SCT006 BKN023 OVC060 09/07 A2985 RMK AO2 SLP109 P0002 T00890072 $

TAF KBUF
Valid from the 24 at 02:00 until the 25 at 00:00 UTC


240224Z 2402/2424 22014G24KT 6SM -RA BR OVC012
FM240700 24010G17KT P6SM VCSH BKN035
FM241000 25009KT P6SM VCSH OVC012
FM241200 34011G17KT 6SM -SHRA OVC007
FM241600 36012G19KT P6SM OVC012
FM241900 01012KT P6SM BKN035
KZOB FIR / North America



MET'MAP, your aeronautical weather chart ! - Copyright ORBIFLY December 2007 - Disclaimer

ORBIFLY MET'MAP TEAM :

Programming & Development : Alexandra Zaïnal
Original concept : Baudouin d'Aumeries
Technical & hardware support : Manuel Goepfert
Assistance : Marc-Olivier Méhu




SOURCES & CREDITS :

   NOAA       Earth
Advisory